Time;durP1;ratioP1;P1;durP2;ratioP2;P2;SDS_P1;SDS_P2;PMS_P1;PMS_P2;Temp;Humidity;BMP_temperature;BMP_pressure;BME280_temperature;BME280_humidity;BME280_pressure;Samples;Min_cycle;Max_cycle;Signal;HPM_P1;HPM_P2
2023/02/28 00:00:11;;;;;;;0.50;0.50;;;3.80;99.90;;;;;;4962219;28;20099;-72
2023/02/28 00:02:42;;;;;;;0.80;0.50;;;3.70;99.90;;;;;;4616719;28;10000142;-73
2023/02/28 00:05:09;;;;;;;0.95;0.70;;;3.70;99.90;;;;;;4965299;28;20047;-73
2023/02/28 00:07:36;;;;;;;0.70;0.60;;;3.60;99.90;;;;;;4973911;28;20081;-73
2023/02/28 00:10:07;;;;;;;1.88;0.85;;;3.60;99.90;;;;;;4981801;28;20138;-73
2023/02/28 00:12:34;;;;;;;1.30;0.80;;;3.60;99.90;;;;;;4938670;28;20166;-73
2023/02/28 00:15:02;;;;;;;0.60;0.52;;;3.50;99.90;;;;;;4964010;28;20046;-73
2023/02/28 00:17:28;;;;;;;1.67;0.50;;;3.50;99.90;;;;;;4970992;28;20086;-73
2023/02/28 00:19:56;;;;;;;1.65;0.60;;;3.40;99.90;;;;;;4957272;28;20133;-73
2023/02/28 00:22:23;;;;;;;0.80;0.70;;;3.40;99.90;;;;;;4981012;28;20054;-73
2023/02/28 00:24:50;;;;;;;1.13;0.80;;;3.30;99.90;;;;;;4976857;28;20104;-73
2023/02/28 00:27:16;;;;;;;1.38;0.77;;;3.20;99.90;;;;;;4960186;28;20461;-73
2023/02/28 00:29:43;;;;;;;0.82;0.63;;;3.20;99.90;;;;;;4947992;28;20236;-73
2023/02/28 00:32:10;;;;;;;1.23;0.60;;;3.20;99.90;;;;;;4965579;28;20062;-73
2023/02/28 00:34:37;;;;;;;1.00;0.73;;;3.10;99.90;;;;;;4963219;28;20082;-72
2023/02/28 00:37:05;;;;;;;1.27;0.70;;;3.10;99.90;;;;;;4958531;28;20050;-72
2023/02/28 00:39:34;;;;;;;1.45;0.93;;;3.10;99.90;;;;;;4973259;28;20057;-72
2023/02/28 00:42:00;;;;;;;0.70;0.70;;;3.00;99.90;;;;;;4964684;28;20057;-72
2023/02/28 00:44:28;;;;;;;0.80;0.70;;;3.00;99.90;;;;;;4975409;28;20058;-72
2023/02/28 00:46:56;;;;;;;1.27;0.70;;;3.00;99.90;;;;;;4980113;28;20071;-72
2023/02/28 00:49:23;;;;;;;1.63;0.75;;;3.00;99.90;;;;;;4966325;28;20050;-72
2023/02/28 00:51:50;;;;;;;0.85;0.73;;;2.90;99.90;;;;;;4980986;28;20068;-72
2023/02/28 00:54:17;;;;;;;1.73;1.23;;;2.90;99.90;;;;;;4977551;28;20058;-72
2023/02/28 00:56:43;;;;;;;1.08;0.70;;;2.90;99.90;;;;;;4982679;28;20101;-72
2023/02/28 00:59:10;;;;;;;1.13;0.82;;;2.90;99.90;;;;;;4984292;28;20097;-72
2023/02/28 01:01:37;;;;;;;1.13;0.90;;;2.90;99.90;;;;;;4964539;28;20375;-72
2023/02/28 01:04:04;;;;;;;1.08;0.70;;;2.90;99.90;;;;;;4969818;28;20054;-72
2023/02/28 01:06:31;;;;;;;1.70;0.98;;;2.90;99.90;;;;;;4978655;28;20380;-72
2023/02/28 01:08:59;;;;;;;1.58;0.88;;;2.90;99.90;;;;;;4977820;28;20242;-72
2023/02/28 01:11:25;;;;;;;2.15;0.93;;;2.80;99.90;;;;;;4950508;28;20073;-72
2023/02/28 01:13:53;;;;;;;1.30;0.90;;;2.80;99.90;;;;;;4938997;28;20070;-72
2023/02/28 01:16:19;;;;;;;1.33;0.80;;;2.80;99.90;;;;;;4952795;28;20083;-72
2023/02/28 01:18:46;;;;;;;1.10;1.00;;;2.70;99.90;;;;;;4979219;28;20129;-72
2023/02/28 01:21:15;;;;;;;1.10;1.00;;;2.70;99.90;;;;;;4965521;28;20051;-72
2023/02/28 01:23:42;;;;;;;1.13;0.80;;;2.70;99.90;;;;;;4979740;28;20137;-72
2023/02/28 01:26:13;;;;;;;1.50;1.00;;;2.60;99.90;;;;;;4978501;28;20057;-72
2023/02/28 01:28:40;;;;;;;1.38;0.75;;;2.60;99.90;;;;;;4963027;28;20057;-72
2023/02/28 01:31:08;;;;;;;0.70;0.60;;;2.60;99.90;;;;;;4963651;28;20051;-72
2023/02/28 01:33:35;;;;;;;1.10;0.75;;;2.60;99.90;;;;;;4962874;28;20046;-72
2023/02/28 01:36:06;;;;;;;0.50;0.50;;;2.60;99.90;;;;;;4972356;28;20069;-72
2023/02/28 01:38:33;;;;;;;1.60;0.63;;;2.60;99.90;;;;;;4965152;28;20058;-72
2023/02/28 01:41:00;;;;;;;1.08;0.85;;;2.50;99.90;;;;;;4983229;28;20050;-72
2023/02/28 01:43:31;;;;;;;1.13;0.73;;;2.50;99.90;;;;;;4985228;28;20046;-72
2023/02/28 01:45:58;;;;;;;1.20;0.90;;;2.50;99.90;;;;;;4997006;28;20512;-72
2023/02/28 01:48:27;;;;;;;1.60;0.70;;;2.50;99.90;;;;;;4964480;28;20050;-72
2023/02/28 01:50:55;;;;;;;1.63;1.10;;;2.50;99.90;;;;;;4982343;28;20127;-73
2023/02/28 01:53:26;;;;;;;1.48;0.80;;;2.40;99.90;;;;;;4995998;28;20050;-72
2023/02/28 01:55:53;;;;;;;1.50;0.82;;;2.40;99.90;;;;;;4978212;28;20499;-72
2023/02/28 01:58:20;;;;;;;1.38;0.82;;;2.40;99.90;;;;;;4960515;28;20102;-72
2023/02/28 02:00:47;;;;;;;0.82;0.75;;;2.40;99.90;;;;;;4973255;28;20142;-72
2023/02/28 02:03:15;;;;;;;1.15;0.80;;;2.40;99.90;;;;;;4968625;28;20512;-72
2023/02/28 02:05:47;;;;;;;1.42;0.95;;;2.30;99.90;;;;;;4974061;28;20478;-72
2023/02/28 02:08:19;;;;;;;1.27;0.90;;;2.30;99.90;;;;;;4962755;28;20054;-72
2023/02/28 02:10:50;;;;;;;3.38;0.90;;;2.30;99.90;;;;;;4950930;28;20047;-72
2023/02/28 02:13:45;;;;;;;1.42;0.77;;;2.40;99.90;;;;;;4962335;28;20081;-72
2023/02/28 02:16:36;;;;;;;1.05;0.70;;;2.30;99.90;;;;;;4999000;28;20074;-72
2023/02/28 02:19:25;;;;;;;1.00;0.90;;;2.30;99.90;;;;;;4967540;28;20466;-72
2023/02/28 02:22:00;;;;;;;1.13;0.85;;;2.30;99.90;;;;;;4972189;28;20053;-72
2023/02/28 02:24:36;;;;;;;1.25;0.98;;;2.30;99.90;;;;;;4959797;28;20058;-72
2023/02/28 02:27:14;;;;;;;2.47;0.90;;;2.30;99.90;;;;;;4981440;28;20066;-72
2023/02/28 02:30:22;;;;;;;2.47;1.25;;;2.30;99.90;;;;;;4972261;28;20080;-72
2023/02/28 02:33:26;;;;;;;1.15;0.90;;;2.30;99.90;;;;;;4244949;28;10000061;-72
2023/02/28 02:36:07;;;;;;;1.63;0.95;;;2.40;99.90;;;;;;4961846;28;20540;-72
2023/02/28 02:38:53;;;;;;;1.73;0.90;;;2.40;99.90;;;;;;4976382;28;20545;-72
2023/02/28 02:41:33;;;;;;;1.27;0.90;;;2.40;99.90;;;;;;4962512;28;20051;-72
2023/02/28 02:44:18;;;;;;;0.63;0.60;;;2.40;99.90;;;;;;4950750;28;20051;-72
2023/02/28 02:46:45;;;;;;;1.00;0.73;;;2.30;99.90;;;;;;4960069;28;20051;-72
2023/02/28 02:49:20;;;;;;;0.85;0.85;;;2.10;99.90;;;;;;4604581;28;10000180;-72
2023/02/28 02:51:47;;;;;;;1.33;1.00;;;2.10;99.90;;;;;;4979367;28;20585;-72
2023/02/28 02:54:19;;;;;;;0.80;0.80;;;2.10;99.90;;;;;;4984135;28;20129;-72
2023/02/28 02:56:47;;;;;;;1.75;0.77;;;2.10;99.90;;;;;;5000248;28;21818;-72
2023/02/28 02:59:20;;;;;;;0.75;0.68;;;2.10;99.90;;;;;;4967161;28;20363;-72
2023/02/28 03:01:53;;;;;;;1.95;1.00;;;2.10;99.90;;;;;;4967704;28;20057;-72
2023/02/28 03:04:22;;;;;;;1.45;0.90;;;2.00;99.90;;;;;;4967026;28;20047;-72
2023/02/28 03:06:54;;;;;;;1.33;0.65;;;2.00;99.90;;;;;;4951510;28;20051;-72
2023/02/28 03:09:22;;;;;;;2.00;0.70;;;1.90;99.90;;;;;;4952461;28;20049;-72
2023/02/28 03:11:49;;;;;;;1.30;0.80;;;1.90;99.90;;;;;;4957883;28;20400;-72
2023/02/28 03:14:37;;;;;;;1.00;0.73;;;1.90;99.90;;;;;;4969148;28;20088;-72
2023/02/28 03:17:16;;;;;;;1.00;0.90;;;1.80;99.90;;;;;;4965780;28;20130;-72
2023/02/28 03:19:54;;;;;;;1.90;0.80;;;1.80;99.90;;;;;;4967041;28;20046;-72
2023/02/28 03:22:37;;;;;;;1.13;0.88;;;1.60;99.90;;;;;;4971998;28;20039;-72
2023/02/28 03:25:22;;;;;;;1.48;0.93;;;1.40;99.90;;;;;;4953934;28;20057;-72
2023/02/28 03:28:23;;;;;;;1.80;1.10;;;1.50;99.90;;;;;;4936445;28;20111;-72
2023/02/28 03:30:57;;;;;;;1.73;1.00;;;1.50;99.90;;;;;;4969032;28;20105;-72
2023/02/28 03:33:34;;;;;;;2.42;1.10;;;1.50;99.90;;;;;;4961566;28;20066;-72
2023/02/28 03:36:05;;;;;;;1.75;1.00;;;1.60;99.90;;;;;;4968392;28;20070;-72
2023/02/28 03:38:38;;;;;;;1.08;0.98;;;1.50;99.90;;;;;;4951477;28;20069;-72
2023/02/28 03:41:17;;;;;;;1.70;1.00;;;1.50;99.90;;;;;;4981061;28;20501;-72
2023/02/28 03:44:15;;;;;;;2.10;0.90;;;1.50;99.90;;;;;;4966971;28;20455;-74
2023/02/28 03:46:46;;;;;;;1.48;1.00;;;1.50;99.90;;;;;;4963479;28;20046;-72
2023/02/28 03:49:28;;;;;;;3.03;1.20;;;1.40;99.90;;;;;;4982908;28;20506;-72
2023/02/28 03:51:55;;;;;;;2.35;1.00;;;1.20;99.90;;;;;;4968213;28;20064;-72
2023/02/28 03:54:25;;;;;;;1.40;1.15;;;1.20;99.90;;;;;;4969321;28;20101;-72
2023/02/28 03:57:07;;;;;;;1.77;0.98;;;1.10;99.90;;;;;;4964996;28;20716;-72
2023/02/28 03:59:39;;;;;;;2.13;1.02;;;1.10;99.90;;;;;;4966389;28;20150;-72
2023/02/28 04:02:06;;;;;;;1.70;1.00;;;1.10;99.90;;;;;;4983602;28;20118;-72
2023/02/28 04:04:33;;;;;;;2.15;1.10;;;1.10;99.90;;;;;;4968774;28;20047;-72
2023/02/28 04:07:07;;;;;;;1.58;0.93;;;1.00;99.90;;;;;;4948727;28;20054;-72
2023/02/28 04:09:34;;;;;;;1.80;1.02;;;1.10;99.90;;;;;;4947613;28;20071;-72
2023/02/28 04:12:01;;;;;;;1.60;1.08;;;1.10;99.90;;;;;;4952962;28;20051;-72
2023/02/28 04:14:28;;;;;;;1.52;0.93;;;1.10;99.90;;;;;;4986369;28;20078;-72
2023/02/28 04:16:54;;;;;;;1.25;0.90;;;1.20;99.90;;;;;;4966322;28;20050;-72
2023/02/28 04:19:21;;;;;;;0.90;0.90;;;1.20;99.90;;;;;;4968966;28;20239;-71
2023/02/28 04:21:50;;;;;;;1.02;0.90;;;1.20;99.90;;;;;;4966151;28;20089;-72
2023/02/28 04:24:19;;;;;;;1.05;0.75;;;1.20;99.90;;;;;;4952619;28;20122;-72
2023/02/28 04:26:47;;;;;;;1.17;1.00;;;1.20;99.90;;;;;;4963172;28;20652;-72
2023/02/28 04:29:17;;;;;;;2.58;1.02;;;1.30;99.90;;;;;;4950861;28;20047;-72
2023/02/28 04:31:44;;;;;;;1.83;0.90;;;1.40;99.90;;;;;;4949837;28;20077;-72
2023/02/28 04:34:11;;;;;;;1.33;1.00;;;1.40;99.90;;;;;;4959310;28;20046;-72
2023/02/28 04:36:38;;;;;;;2.33;1.25;;;1.50;99.90;;;;;;4967743;28;20055;-72
2023/02/28 04:39:04;;;;;;;1.52;0.70;;;1.60;99.90;;;;;;4967234;28;20049;-72
2023/02/28 04:41:31;;;;;;;1.60;0.80;;;1.60;99.90;;;;;;4965284;28;20057;-72
2023/02/28 04:43:59;;;;;;;1.20;0.80;;;1.60;99.90;;;;;;4982470;28;20057;-72
2023/02/28 04:46:26;;;;;;;2.03;1.35;;;1.60;99.90;;;;;;4966289;28;20509;-72
2023/02/28 04:48:54;;;;;;;1.23;1.00;;;1.70;99.90;;;;;;4966269;28;20070;-72
2023/02/28 04:51:20;;;;;;;1.10;0.77;;;1.70;99.90;;;;;;4980657;28;20043;-72
2023/02/28 04:53:47;;;;;;;1.45;1.25;;;1.70;99.90;;;;;;4972337;28;20138;-72
2023/02/28 04:56:16;;;;;;;1.75;0.57;;;1.70;99.90;;;;;;4981438;28;20182;-72
2023/02/28 04:58:42;;;;;;;1.60;0.80;;;1.70;99.90;;;;;;4965621;28;20053;-72
2023/02/28 05:01:24;;;;;;;0.80;0.80;;;1.70;99.90;;;;;;4965946;28;20054;-72
2023/02/28 05:03:51;;;;;;;2.03;0.80;;;1.70;99.90;;;;;;4963325;28;20043;-72
2023/02/28 05:06:18;;;;;;;4.10;0.90;;;1.80;99.90;;;;;;4945443;28;20082;-72
2023/02/28 05:08:45;;;;;;;1.35;0.80;;;1.80;99.90;;;;;;4949265;28;20047;-72
2023/02/28 05:11:15;;;;;;;0.77;0.75;;;1.80;99.90;;;;;;4965307;28;20137;-73
2023/02/28 05:13:42;;;;;;;1.83;0.93;;;1.80;99.90;;;;;;4976882;28;20085;-73
2023/02/28 05:16:10;;;;;;;0.85;0.63;;;1.80;99.90;;;;;;4968058;28;20470;-72
2023/02/28 05:18:37;;;;;;;1.20;0.70;;;1.80;99.90;;;;;;4982120;28;20061;-72
2023/02/28 05:21:05;;;;;;;1.92;0.82;;;1.80;99.90;;;;;;4965330;28;20042;-72
2023/02/28 05:23:32;;;;;;;1.58;1.10;;;1.80;99.90;;;;;;4981724;28;20054;-72
2023/02/28 05:25:59;;;;;;;2.03;1.13;;;1.80;99.90;;;;;;4980244;28;20039;-72
2023/02/28 05:28:26;;;;;;;3.35;1.10;;;1.80;99.90;;;;;;4965766;28;20082;-72
2023/02/28 05:30:52;;;;;;;2.25;1.15;;;1.80;99.90;;;;;;4966513;28;20081;-72
2023/02/28 05:33:19;;;;;;;0.90;0.63;;;1.80;99.90;;;;;;4963795;28;20057;-72
2023/02/28 05:35:46;;;;;;;2.13;0.90;;;1.80;99.90;;;;;;4965095;28;20055;-72
2023/02/28 05:38:13;;;;;;;2.13;1.02;;;1.80;99.90;;;;;;4965608;28;20054;-73
2023/02/28 05:40:40;;;;;;;2.63;0.90;;;1.80;99.90;;;;;;4947408;28;20150;-72
2023/02/28 05:43:09;;;;;;;1.70;0.90;;;1.70;99.90;;;;;;4970796;28;20050;-72
2023/02/28 05:45:36;;;;;;;1.77;0.88;;;1.80;99.90;;;;;;4987298;28;20078;-72
2023/02/28 05:48:03;;;;;;;1.85;1.17;;;1.80;99.90;;;;;;4965237;28;20046;-72
2023/02/28 05:50:30;;;;;;;1.30;0.85;;;1.80;99.90;;;;;;4977923;28;20121;-72
2023/02/28 05:52:57;;;;;;;0.68;0.57;;;1.90;99.90;;;;;;4983379;28;20150;-72
2023/02/28 05:55:24;;;;;;;1.63;0.95;;;1.90;99.90;;;;;;4990407;28;20137;-72
2023/02/28 05:57:51;;;;;;;1.00;0.88;;;1.90;99.90;;;;;;4960609;28;20055;-72
2023/02/28 06:00:18;;;;;;;0.70;0.70;;;2.00;99.90;;;;;;4948582;28;20042;-72
2023/02/28 06:02:45;;;;;;;1.23;0.85;;;2.00;99.90;;;;;;4974774;28;20510;-72
2023/02/28 06:05:16;;;;;;;1.55;1.08;;;2.10;99.90;;;;;;4958437;28;20063;-73
2023/02/28 06:07:43;;;;;;;1.52;1.02;;;2.10;99.90;;;;;;4954243;28;20047;-72
2023/02/28 06:10:10;;;;;;;1.92;0.98;;;2.20;99.90;;;;;;4957635;28;20516;-72
2023/02/28 06:12:38;;;;;;;1.60;1.08;;;2.20;99.90;;;;;;4949550;28;20050;-72
2023/02/28 06:15:05;;;;;;;2.42;1.65;;;2.30;99.90;;;;;;4982982;28;20511;-72
2023/02/28 06:17:31;;;;;;;1.33;1.00;;;2.30;99.90;;;;;;4957224;28;20065;-73
2023/02/28 06:19:58;;;;;;;1.50;1.00;;;2.30;99.90;;;;;;4955989;28;20688;-72
2023/02/28 06:22:25;;;;;;;1.77;1.30;;;2.40;99.90;;;;;;4933030;28;20553;-72
2023/02/28 06:24:52;;;;;;;2.35;1.88;;;2.40;99.90;;;;;;4953110;28;20077;-73
2023/02/28 06:27:20;;;;;;;2.15;1.40;;;2.40;99.90;;;;;;4939053;28;20062;-73
2023/02/28 06:29:47;;;;;;;2.22;1.50;;;2.50;99.90;;;;;;4972071;28;20070;-73
2023/02/28 06:32:14;;;;;;;2.92;1.40;;;2.50;99.90;;;;;;4970882;28;20526;-73
2023/02/28 06:34:42;;;;;;;2.72;1.20;;;2.50;99.90;;;;;;4940049;28;20050;-74
2023/02/28 06:37:09;;;;;;;2.28;1.52;;;2.50;99.90;;;;;;4970394;28;20061;-72
2023/02/28 06:39:36;;;;;;;0.98;0.90;;;2.60;99.90;;;;;;4953899;28;20077;-72
2023/02/28 06:42:03;;;;;;;1.45;1.00;;;2.60;99.90;;;;;;4957226;28;20806;-73
2023/02/28 06:44:34;;;;;;;1.70;1.20;;;2.60;99.90;;;;;;4954634;28;20050;-72
2023/02/28 06:47:05;;;;;;;2.88;1.33;;;2.60;99.90;;;;;;4956913;28;20046;-73
2023/02/28 06:49:33;;;;;;;1.58;1.13;;;2.60;99.90;;;;;;4956862;28;20051;-81
2023/02/28 06:51:59;;;;;;;1.80;1.20;;;2.60;99.90;;;;;;4959571;28;20712;-75
2023/02/28 06:54:27;;;;;;;1.42;1.05;;;2.70;99.90;;;;;;4931318;28;20471;-74
2023/02/28 06:56:54;;;;;;;1.55;1.20;;;2.70;99.90;;;;;;4957695;28;20113;-74
2023/02/28 06:59:21;;;;;;;1.50;1.10;;;2.70;99.90;;;;;;4950396;28;20058;-76
2023/02/28 07:01:47;;;;;;;1.88;1.02;;;2.70;99.90;;;;;;4953770;28;20058;-75
2023/02/28 07:04:14;;;;;;;2.20;1.30;;;2.70;99.90;;;;;;4955982;28;20548;-74
2023/02/28 07:06:41;;;;;;;0.80;0.80;;;2.70;99.90;;;;;;4940279;28;20082;-74
2023/02/28 07:09:08;;;;;;;1.40;1.23;;;2.80;99.90;;;;;;4953949;28;20065;-73
2023/02/28 07:11:34;;;;;;;1.90;1.08;;;2.80;99.90;;;;;;4951416;28;20045;-73
2023/02/28 07:14:01;;;;;;;1.48;1.00;;;2.90;99.90;;;;;;4952310;28;20070;-72
2023/02/28 07:16:28;;;;;;;1.67;1.33;;;2.90;99.90;;;;;;4941472;28;20134;-73
2023/02/28 07:18:55;;;;;;;2.22;1.23;;;2.90;99.90;;;;;;4952562;28;20086;-74
2023/02/28 07:21:22;;;;;;;1.27;0.98;;;3.00;99.90;;;;;;4958132;28;20046;-73
2023/02/28 07:23:49;;;;;;;2.15;1.13;;;3.00;99.90;;;;;;4966576;28;20070;-73
2023/02/28 07:26:17;;;;;;;1.77;1.20;;;3.00;99.90;;;;;;4972614;28;20051;-73
2023/02/28 07:28:45;;;;;;;1.85;1.40;;;3.10;99.90;;;;;;4944809;28;20058;-74
2023/02/28 07:31:13;;;;;;;1.90;1.52;;;3.10;99.90;;;;;;4975036;28;20073;-73
2023/02/28 07:33:41;;;;;;;1.85;1.20;;;3.20;99.90;;;;;;4971007;28;20497;-73
2023/02/28 07:36:13;;;;;;;1.08;0.98;;;3.20;99.90;;;;;;5000966;28;20050;-73
2023/02/28 07:38:44;;;;;;;2.33;1.20;;;3.20;99.90;;;;;;4976552;28;20055;-73
2023/02/28 07:41:15;;;;;;;1.30;1.20;;;3.30;99.90;;;;;;4964365;28;20129;-73
2023/02/28 07:43:42;;;;;;;1.42;1.20;;;3.30;99.90;;;;;;4974798;28;20053;-74
2023/02/28 07:46:11;;;;;;;2.25;1.35;;;3.30;99.90;;;;;;4984446;28;20218;-74
2023/02/28 07:48:38;;;;;;;1.50;1.20;;;3.30;99.90;;;;;;4997605;28;20059;-74
2023/02/28 07:51:05;;;;;;;1.90;1.42;;;3.40;99.90;;;;;;5000692;28;20058;-74
2023/02/28 07:53:32;;;;;;;2.45;1.25;;;3.40;99.90;;;;;;4970858;28;20055;-74
2023/02/28 07:56:00;;;;;;;2.58;1.52;;;3.50;99.90;;;;;;4944318;28;20047;-74
2023/02/28 07:58:28;;;;;;;1.70;1.45;;;3.60;99.90;;;;;;4973415;28;20058;-73
2023/02/28 08:00:55;;;;;;;1.80;1.27;;;3.60;99.90;;;;;;4971114;28;20094;-74
2023/02/28 08:03:23;;;;;;;1.88;1.50;;;3.70;99.90;;;;;;4955243;28;20082;-74
2023/02/28 08:05:50;;;;;;;1.92;1.42;;;3.70;99.90;;;;;;4957766;28;20047;-75
2023/02/28 08:08:18;;;;;;;2.22;1.80;;;3.80;99.90;;;;;;4912212;29;20146;-75
2023/02/28 08:10:44;;;;;;;2.17;1.50;;;3.90;99.90;;;;;;4963296;28;20851;-75
2023/02/28 08:13:11;;;;;;;3.13;1.70;;;3.90;99.90;;;;;;4964678;28;20058;-75
2023/02/28 08:15:38;;;;;;;2.40;1.85;;;4.00;99.90;;;;;;4964963;28;20051;-75
2023/02/28 08:18:05;;;;;;;2.67;1.88;;;4.00;99.90;;;;;;4965942;28;20055;-75
2023/02/28 08:20:32;;;;;;;3.30;2.47;;;4.10;99.90;;;;;;4978405;28;20113;-74
2023/02/28 08:22:58;;;;;;;3.80;2.40;;;4.10;99.90;;;;;;4996421;28;20062;-74
2023/02/28 08:25:25;;;;;;;3.38;2.00;;;4.10;99.90;;;;;;4961763;28;20139;-74
2023/02/28 08:27:52;;;;;;;2.50;1.92;;;4.20;99.90;;;;;;4942403;28;20423;-74
2023/02/28 08:30:19;;;;;;;3.10;2.15;;;4.20;99.90;;;;;;4972446;28;20109;-75
2023/02/28 08:32:46;;;;;;;2.58;1.80;;;4.30;99.90;;;;;;4952158;28;20116;-74
2023/02/28 08:35:13;;;;;;;2.35;1.55;;;4.30;99.90;;;;;;4981717;28;20051;-74
2023/02/28 08:37:40;;;;;;;3.13;1.90;;;4.30;99.90;;;;;;4965934;28;20049;-74
2023/02/28 08:40:07;;;;;;;3.72;1.90;;;4.40;99.90;;;;;;4985165;28;20157;-74
2023/02/28 08:42:34;;;;;;;2.33;1.83;;;4.50;99.90;;;;;;4965608;28;20133;-74
2023/02/28 08:45:01;;;;;;;4.72;2.15;;;4.60;99.90;;;;;;4968224;28;20050;-74
2023/02/28 08:47:28;;;;;;;2.15;1.55;;;4.70;99.90;;;;;;4959147;28;20129;-75
2023/02/28 08:49:55;;;;;;;2.30;1.70;;;4.90;99.90;;;;;;4959692;28;20054;-74
2023/02/28 08:52:21;;;;;;;2.30;1.67;;;4.90;99.90;;;;;;4961940;28;20141;-85
2023/02/28 08:54:49;;;;;;;1.80;1.30;;;5.00;99.90;;;;;;4952558;28;20054;-74
2023/02/28 08:57:15;;;;;;;2.10;1.60;;;5.00;99.90;;;;;;4958539;28;20058;-74
2023/02/28 08:59:42;;;;;;;3.40;2.00;;;5.10;99.90;;;;;;4971669;28;20090;-74
2023/02/28 09:02:12;;;;;;;2.67;1.88;;;5.20;99.90;;;;;;4948964;28;20356;-73
2023/02/28 09:04:38;;;;;;;4.15;2.33;;;5.30;99.90;;;;;;4955523;28;20084;-74
2023/02/28 09:07:05;;;;;;;3.80;1.73;;;5.30;99.90;;;;;;4967188;28;20047;-73
2023/02/28 09:09:32;;;;;;;2.70;2.00;;;5.40;99.90;;;;;;4969936;28;20057;-73
2023/02/28 09:11:59;;;;;;;3.03;1.70;;;5.40;99.90;;;;;;4960874;28;20078;-73
2023/02/28 09:14:26;;;;;;;2.88;1.65;;;5.50;99.90;;;;;;4960317;28;20054;-73
2023/02/28 09:16:53;;;;;;;3.20;2.13;;;5.60;99.90;;;;;;4962513;28;20142;-73
2023/02/28 09:19:20;;;;;;;4.10;2.05;;;5.60;99.90;;;;;;4976347;28;20070;-74
2023/02/28 09:21:47;;;;;;;2.50;1.73;;;5.60;99.90;;;;;;4976812;28;20059;-73
2023/02/28 09:24:15;;;;;;;1.83;1.33;;;5.60;99.90;;;;;;4973682;28;20058;-74
2023/02/28 09:26:41;;;;;;;2.35;1.70;;;5.60;99.90;;;;;;4960407;28;20692;-73
2023/02/28 09:29:28;;;;;;;2.33;1.70;;;5.60;99.90;;;;;;4942520;29;20047;-73
2023/02/28 09:31:58;;;;;;;2.63;1.77;;;5.60;99.90;;;;;;4962815;28;20055;-74
2023/02/28 09:34:26;;;;;;;2.50;1.60;;;5.80;99.90;;;;;;4981721;28;20061;-74
2023/02/28 09:36:54;;;;;;;2.58;1.40;;;5.80;99.90;;;;;;4972873;28;20570;-74
2023/02/28 09:39:22;;;;;;;1.50;1.30;;;5.90;99.90;;;;;;4952544;28;20471;-75
2023/02/28 09:41:51;;;;;;;3.72;2.10;;;6.00;99.90;;;;;;4952973;28;20499;-75
2023/02/28 09:44:24;;;;;;;2.15;1.67;;;6.10;99.90;;;;;;4956059;28;20051;-75
2023/02/28 09:47:13;;;;;;;1.90;1.33;;;6.20;99.90;;;;;;4952335;28;20506;-74
2023/02/28 09:49:42;;;;;;;1.55;1.20;;;6.30;99.90;;;;;;4948310;28;20102;-74
2023/02/28 09:52:30;;;;;;;1.75;1.20;;;6.50;99.90;;;;;;4945759;28;20055;-74
2023/02/28 09:55:04;;;;;;;1.42;1.33;;;6.60;99.90;;;;;;4960799;28;20617;-74
2023/02/28 09:57:39;;;;;;;1.10;0.95;;;6.60;99.90;;;;;;4980941;28;20042;-74
2023/02/28 10:00:13;;;;;;;2.45;1.85;;;6.60;99.90;;;;;;4982354;28;20128;-74
2023/02/28 10:02:54;;;;;;;1.95;1.20;;;6.60;99.90;;;;;;4987716;28;20121;-74
2023/02/28 10:05:38;;;;;;;1.73;1.33;;;6.50;99.90;;;;;;4962895;28;20059;-73
2023/02/28 10:08:11;;;;;;;2.10;1.35;;;6.40;99.90;;;;;;4961976;28;20055;-74
2023/02/28 10:10:53;;;;;;;1.63;1.10;;;6.30;99.90;;;;;;4976772;28;20050;-74
2023/02/28 10:13:24;;;;;;;1.83;1.20;;;6.40;99.90;;;;;;4944274;28;20055;-74
2023/02/28 10:16:39;;;;;;;1.42;1.10;;;6.50;99.90;;;;;;4948938;28;20404;-73
2023/02/28 10:19:20;;;;;;;1.27;0.98;;;6.50;99.90;;;;;;4949585;28;20585;-74
2023/02/28 10:22:02;;;;;;;1.30;1.00;;;6.50;99.90;;;;;;4952846;28;20161;-74
2023/02/28 10:24:38;;;;;;;1.38;1.00;;;6.60;99.90;;;;;;4967644;28;20059;-73
2023/02/28 10:27:24;;;;;;;1.70;1.15;;;6.60;99.90;;;;;;4950114;28;20046;-73
2023/02/28 10:29:54;;;;;;;1.52;1.30;;;6.60;99.90;;;;;;4953128;28;20047;-73
2023/02/28 10:32:28;;;;;;;1.85;1.23;;;6.70;99.90;;;;;;4951341;28;20054;-73
2023/02/28 10:35:00;;;;;;;2.08;1.58;;;6.70;99.90;;;;;;4968823;28;20134;-73
2023/02/28 10:37:27;;;;;;;0.80;0.80;;;6.80;99.90;;;;;;4964539;28;20167;-74
2023/02/28 10:39:54;;;;;;;1.33;0.98;;;6.90;99.90;;;;;;4957492;28;20134;-74
2023/02/28 10:42:25;;;;;;;0.90;0.63;;;6.90;99.90;;;;;;4946252;28;20670;-75
2023/02/28 10:45:14;;;;;;;1.00;0.82;;;6.80;99.90;;;;;;4942906;28;20529;-73
2023/02/28 10:47:55;;;;;;;0.90;0.68;;;6.90;99.90;;;;;;4976188;28;20399;-75
2023/02/28 10:50:53;;;;;;;1.50;0.80;;;6.80;99.90;;;;;;4979267;28;20054;-74
2023/02/28 10:53:25;;;;;;;1.45;0.40;;;6.80;99.90;;;;;;4977004;28;20061;-74
2023/02/28 10:56:07;;;;;;;1.00;0.90;;;6.80;99.90;;;;;;4961916;28;20439;-74
2023/02/28 10:58:56;;;;;;;0.93;0.80;;;6.80;99.90;;;;;;4961073;28;20046;-74
2023/02/28 11:01:44;;;;;;;1.20;1.10;;;6.80;99.90;;;;;;4975154;28;20050;-75
2023/02/28 11:04:39;;;;;;;0.80;0.80;;;6.80;99.90;;;;;;4976846;28;20129;-74
2023/02/28 11:07:20;;;;;;;1.20;0.90;;;6.70;99.90;;;;;;4944267;28;20055;-75
2023/02/28 11:09:56;;;;;;;1.73;1.13;;;6.70;99.90;;;;;;4957225;28;20047;-74
2023/02/28 11:12:36;;;;;;;0.98;0.82;;;6.80;99.90;;;;;;4949099;28;20089;-74
2023/02/28 11:15:25;;;;;;;2.05;1.05;;;6.80;99.90;;;;;;4947036;28;20073;-75
2023/02/28 11:18:18;;;;;;;1.50;0.90;;;6.70;99.90;;;;;;4962656;28;20090;-74
2023/02/28 11:20:48;;;;;;;;;;;6.70;99.90;;;;;;4970542;28;20074;-74
2023/02/28 11:23:14;;;;;;;2.25;1.00;;;6.70;99.90;;;;;;4961594;28;20412;-73
2023/02/28 11:25:45;;;;;;;1.20;0.85;;;6.70;99.90;;;;;;4945040;28;20050;-73
2023/02/28 11:28:31;;;;;;;0.70;0.68;;;6.80;99.90;;;;;;4962801;28;20065;-74
2023/02/28 11:31:02;;;;;;;1.13;0.80;;;6.70;99.90;;;;;;4965445;28;20053;-74
2023/02/28 11:33:40;;;;;;;1.38;1.13;;;6.80;99.90;;;;;;4980857;28;20086;-74
2023/02/28 11:36:19;;;;;;;1.92;1.58;;;6.80;99.90;;;;;;4946230;28;20133;-74
2023/02/28 11:38:49;;;;;;;0.70;0.70;;;6.90;99.90;;;;;;4962564;28;20063;-74
2023/02/28 11:41:27;;;;;;;0.70;0.70;;;6.80;99.90;;;;;;4948240;28;20054;-74
2023/02/28 11:44:01;;;;;;;0.98;0.80;;;6.80;99.90;;;;;;4979719;28;20193;-74
2023/02/28 11:46:52;;;;;;;1.23;0.95;;;6.80;99.90;;;;;;4965677;28;20086;-74
2023/02/28 11:49:38;;;;;;;1.60;1.00;;;6.80;99.90;;;;;;4972177;28;20077;-73
2023/02/28 11:52:29;;;;;;;1.38;1.10;;;6.70;99.90;;;;;;4929616;28;20047;-75
2023/02/28 11:55:13;;;;;;;1.10;0.90;;;6.70;99.90;;;;;;4944012;28;20111;-74
2023/02/28 11:58:01;;;;;;;3.72;1.45;;;6.70;99.90;;;;;;4964446;28;20073;-74
2023/02/28 12:00:31;;;;;;;2.42;1.00;;;6.70;99.90;;;;;;4961280;28;20133;-75
2023/02/28 12:03:12;;;;;;;1.67;0.90;;;6.70;99.90;;;;;;4962626;28;20129;-75
2023/02/28 12:06:11;;;;;;;0.70;0.70;;;6.80;99.90;;;;;;4960066;28;20150;-75
2023/02/28 12:08:53;;;;;;;2.42;0.93;;;6.90;99.90;;;;;;4950825;28;20225;-75
2023/02/28 12:11:29;;;;;;;1.58;0.98;;;6.90;99.90;;;;;;4975045;28;20054;-75
2023/02/28 12:14:14;;;;;;;1.77;1.05;;;6.90;99.90;;;;;;4964748;28;20051;-74
2023/02/28 12:17:00;;;;;;;1.60;1.38;;;6.90;99.90;;;;;;4964115;28;20085;-75
2023/02/28 12:19:41;;;;;;;1.10;0.98;;;7.10;99.90;;;;;;4961339;28;20065;-75
2023/02/28 12:22:19;;;;;;;1.20;0.90;;;7.20;99.90;;;;;;4961810;28;20626;-74
2023/02/28 12:25:07;;;;;;;1.60;1.25;;;7.20;99.90;;;;;;4961046;28;20137;-75
2023/02/28 12:27:38;;;;;;;3.75;1.13;;;7.30;99.90;;;;;;4941864;29;20142;-75
2023/02/28 12:30:14;;;;;;;1.60;1.08;;;7.40;99.90;;;;;;4946506;28;20158;-75
2023/02/28 12:32:43;;;;;;;1.67;1.48;;;7.50;99.90;;;;;;4944900;28;20066;-74
2023/02/28 12:35:09;;;;;;;1.58;1.30;;;7.40;99.90;;;;;;4967503;28;20087;-75
2023/02/28 12:37:45;;;;;;;1.90;1.20;;;7.40;99.90;;;;;;4959578;28;20137;-75
2023/02/28 12:40:18;;;;;;;1.30;1.20;;;7.40;99.90;;;;;;4950154;28;20125;-74
2023/02/28 12:42:53;;;;;;;1.10;1.00;;;7.30;99.90;;;;;;4955190;28;20042;-73
2023/02/28 12:45:24;;;;;;;1.55;1.17;;;7.30;99.90;;;;;;4959055;28;20054;-73
2023/02/28 12:48:00;;;;;;;1.65;0.98;;;7.30;99.90;;;;;;4942656;29;20051;-73
2023/02/28 12:50:29;;;;;;;1.30;1.10;;;7.30;99.90;;;;;;4968909;28;20059;-73
2023/02/28 12:53:28;;;;;;;1.70;1.42;;;7.40;99.90;;;;;;4952854;28;20050;-75
2023/02/28 12:56:04;;;;;;;2.15;1.60;;;7.40;99.90;;;;;;4952481;28;20143;-74
2023/02/28 12:58:37;;;;;;;2.30;1.73;;;7.20;99.90;;;;;;4947928;28;20054;-73
2023/02/28 13:01:10;;;;;;;;;;;7.20;99.90;;;;;;4956918;28;20061;-74
2023/02/28 13:04:10;;;;;;;2.63;1.38;;;7.20;99.90;;;;;;4958249;28;19997;-74
2023/02/28 13:06:59;;;;;;;1.90;1.35;;;7.20;99.90;;;;;;4943399;28;20051;-74
2023/02/28 13:09:26;;;;;;;1.70;1.13;;;7.10;99.90;;;;;;4951436;28;20595;-74
2023/02/28 13:11:54;;;;;;;3.10;1.20;;;7.10;99.90;;;;;;4951024;28;20051;-74
2023/02/28 13:14:34;;;;;;;2.35;1.15;;;7.20;99.90;;;;;;4968167;28;20529;-74
2023/02/28 13:17:07;;;;;;;1.08;0.80;;;7.20;99.90;;;;;;4969702;28;20133;-74
2023/02/28 13:19:35;;;;;;;0.80;0.80;;;7.10;99.90;;;;;;4954334;28;20059;-74
2023/02/28 13:22:02;;;;;;;1.10;0.85;;;7.10;99.90;;;;;;4970108;28;20506;-74